This is the latest recevied weather packets stored in our database for station/object EA5CEE. If no packets are shown the sender has not sent any weather packets the latest 10 day(s).
| Time | Temp. | Humidity | Pressure | Rain* | Wind** | Luminosity | Snow |
|---|---|---|---|---|---|---|---|
| 1777492847 | 17.78° C | 89% | 1011.8 hPa | 0 mm | - | - | - |
| 1777491944 | 17.78° C | 89% | 1011.6 hPa | 0 mm | - | - | - |
| 1777491043 | 17.78° C | 89% | 1011.3 hPa | 0 mm | - | - | - |
| 1777490139 | 17.78° C | 88% | 1010.9 hPa | 0 mm | - | - | - |
| 1777489237 | 17.78° C | 88% | 1010.6 hPa | 0 mm | - | - | - |
| 1777488335 | 17.78° C | 88% | 1010.5 hPa | 0 mm | - | - | - |
| 1777487438 | 17.78° C | 88% | 1010.4 hPa | 0 mm | - | - | - |
| 1777486545 | 17.78° C | 87% | 1010.4 hPa | 0 mm | - | - | - |
| 1777485632 | 18.33° C | 86% | 1010.3 hPa | 0 mm | - | - | - |
| 1777484737 | 18.33° C | 86% | 1010.1 hPa | 0 mm | - | - | - |
| 1777483830 | 18.33° C | 86% | 1009.9 hPa | 0 mm | - | - | - |
| 1777482929 | 18.33° C | 85% | 1009.9 hPa | 0 mm | - | - | - |
| 1777482028 | 18.33° C | 86% | 1009.7 hPa | 0 mm | - | - | - |
| 1777481131 | 18.89° C | 85% | 1009.7 hPa | 0 mm | - | - | - |
| 1777480227 | 19.44° C | 83% | 1009.8 hPa | 0 mm | - | - | - |
| 1777479327 | 20° C | 78% | 1009.6 hPa | 0 mm | - | - | - |
| 1777478430 | 20° C | 77% | 1009.4 hPa | 0 mm | - | - | - |
| 1777477525 | 20° C | 76% | 1009.4 hPa | 0 mm | - | - | - |
| 1777476624 | 20.56° C | 76% | 1009.4 hPa | 0 mm | - | - | - |
| 1777475740 | 20° C | 77% | 1009.4 hPa | 0 mm | - | - | - |
| 1777474824 | 20° C | 78% | 1009.4 hPa | 0 mm | - | - | - |
| 1777473922 | 19.44° C | 79% | 1009.4 hPa | 0 mm | - | - | - |
| 1777473021 | 19.44° C | 79% | 1009.3 hPa | 0 mm | - | - | - |
| 1777472135 | 20° C | 78% | 1009.3 hPa | 0 mm | - | - | - |
| 1777471219 | 20° C | 80% | 1009.7 hPa | 0 mm | - | - | - |
* Rain latest hour (hover to see other rain measurements)
** Current wind speed in m/s (hover to see current wind gust speed)